Terminal Aerodrome Forecast
Issued by NWS

Home | Current Version | Previous Version | Graphics & Text | Print | Product List | Glossary On
Versions: 1 2 3 4 5 6 7 8 9 10 11 12 13 14 15 16 17 18 19 20 21 22 23 24 25 26 27 28 29 30 31 32 33 34 35 36
000
FTUS43 KLOT 240255 AAA
TAFMDW
TAF AMD
KMDW 240255Z 2403/2424 13006KT P6SM SCT250
     FM240600 16006KT P6SM BKN150
     FM241400 16010KT P6SM VCSH SCT040 BKN090
     FM241800 15011G17KT P6SM SCT040 BKN090=

USA.gov is the U.S. government's official web portal to all federal, state and local government web resources and services.